Pagrindinis puslapis
METAR-TAF:

METAR-TAF

Oro uostai :

Upsala, Švedija

platuma: 59-53N, ilguma: 017-36E, Aukštis: 21 m

Dabartinis oras

Ataskaita buvo paskelbta 43 minutes, ne 03:50 UTC
Vėjas 1 kt nuo kintamojo kryptimis
Temperatūra 17°C
Drėgmė 100%
Slėgis 1013 hPa
Matomumas 10 km arba daugiau

METAR: ESCM 250350Z AUTO VRB01KT 9999 OVC007/// 17/17 Q1013

Laikas: 06:33 (04:33 UTC)

Prognozė

Ataskaita buvo paskelbta 22 valandos ir 33 minutes, ne 06:00 UTC
Prognozė galioja nuo 24 metu 06 UTC su 24 metu 10 UTC
Vėjas 3 kt iš Pietų/Pietryčių
Matomumas 10 km arba daugiau
Su prošvaistėmis ne aukštis 3000 ft
Tikimybė 30%
nuo 24 metu 09 UTC su 24 metu 10 UTC
lietus

TAF: ESCM 240600Z 2406/2410 16003KT 9999 BKN030 PROB30 2409/2410 SHRA RMK MIL

Orai ataskaitas ir orų prognozės (METAR, TAF).

turimą stotys yra geltonos ir raudonos taškus žemėlapyje.

Perkelti pele per norėdami pamatyti stoties vardą.

Tada spustelėkite, norėdami matyti oro stebėjimo ir prognozės.

Norėdami pakeisti žemėlapį: spustelėkite ant žalios mygtukų su juodo kryžiaus žemyn,; žalią mygtuką su brūkšneliu, jei norite nutolinti; arba žalių rodyklių gretimoms žemėlapius.


METAR-TAF: